SESA/SNC METAR and TAF weather

Enter ICAO airport designator
Station Type Date Time Source
SESA METAR 2020/01/24 21:00 UTC NOAA

SESA 242100Z 24008KT CAVOK 28/22 Q1010 RMK A2981


Station Type Date Time Source
SESA Decoded METAR 2020/01/24 21:00 UTC NOAA

Salinas / General Ulpiano Paez, Ecuador (SESA) 02-12S 080-59W 8M
Jan 24, 2020 - 04:00 PM EST / 2020.01.24 2100 UTC
Wind: from the WSW (240 degrees) at 9 MPH (8 KT):0
Visibility: greater than 7 mile(s):0
Temperature: 82 F (28 C)
Dew Point: 71 F (22 C)
Relative Humidity: 69%
Pressure (altimeter): 29.83 in. Hg (1010 hPa)
ob: SESA 242100Z 24008KT CAVOK 28/22 Q1010 RMK A2981
cycle: 21

Station Type Date Time Source
SESA TAF UTC NOAA

Error!

Example: see airport list